Wilderville, Texas
Current Conditions -  °F | °C
As of 4:55 PM on Tuesday 25 Nov 2014 (Local Time) from KT35 Reporting Station
Clear Clear  
Wind Chill: 63°   Ceiling: Unl
Heat Index: 63°   Visibility: 10mi
Dew Point: 26°   Wind: 6mph
Humidity: 24%   Direction: 260°W
Pressure: 30.2"   Gusts: NA
Location:  31.0981°N, 96.99°W
Report Text: KT35 252255Z AUTO 26005KT 10SM CLR 17/M03 A3020 RMK AO2 T01741033
Loading
Personal Weather Stations






























Interactive Weather Map New forecast layout! Learn more

10-Day Weather Forecast

Advertisements
Track Severe Weather on mobile